Time;durP1;ratioP1;P1;durP2;ratioP2;P2;SDS_P1;SDS_P2;PMS_P1;PMS_P2;Temp;Humidity;BMP_temperature;BMP_pressure;BME280_temperature;BME280_humidity;BME280_pressure;Samples;Min_cycle;Max_cycle;Signal;HPM_P1;HPM_P2
2022/11/17 00:00:41;;;;;;;3.90;3.50;;;4.00;99.90;;;;;;5010451;28;20283;-93
2022/11/17 00:03:28;;;;;;;3.90;3.33;;;4.10;99.90;;;;;;5017963;28;20596;-93
2022/11/17 00:06:10;;;;;;;4.90;3.47;;;4.10;99.90;;;;;;5018047;28;20279;-94
2022/11/17 00:08:42;;;;;;;3.63;3.13;;;4.20;99.90;;;;;;5014399;28;20579;-94
2022/11/17 00:11:10;;;;;;;3.97;3.00;;;4.20;99.90;;;;;;5017308;28;20215;-93
2022/11/17 00:16:34;;;;;;;5.00;3.30;;;4.20;99.90;;;;;;5021178;28;20206;-94
2022/11/17 00:21:52;;;;;;;4.23;2.90;;;4.00;99.90;;;;;;5024189;28;20202;-93
2022/11/17 00:24:24;;;;;;;5.07;2.87;;;4.00;99.90;;;;;;5024044;28;20259;-94
2022/11/17 00:27:01;;;;;;;3.30;3.00;;;4.00;99.90;;;;;;5009148;28;20238;-94
2022/11/17 00:29:58;;;;;;;3.20;2.90;;;4.00;99.90;;;;;;5013186;28;20241;-94
2022/11/17 00:35:28;;;;;;;3.20;2.80;;;4.10;99.90;;;;;;5011701;28;20275;-93
2022/11/17 00:40:42;;;;;;;5.53;2.77;;;4.20;99.90;;;;;;5016737;28;20194;-93
2022/11/17 00:43:10;;;;;;;3.20;2.87;;;4.30;99.90;;;;;;5010336;28;20208;-94
2022/11/17 00:45:46;;;;;;;3.67;2.97;;;4.30;99.90;;;;;;5014975;28;20210;-93
2022/11/17 00:48:22;;;;;;;3.10;2.80;;;4.40;99.90;;;;;;5021848;28;20222;-93
2022/11/17 00:51:28;;;;;;;2.50;2.30;;;4.40;99.90;;;;;;5020962;28;20282;-93
2022/11/17 00:54:01;;;;;;;2.67;2.37;;;4.50;99.90;;;;;;5025355;28;20321;-93
2022/11/17 00:56:30;;;;;;;3.00;2.70;;;4.50;99.90;;;;;;5020402;28;20243;-94
2022/11/17 00:59:04;;;;;;;4.50;2.53;;;4.50;99.90;;;;;;5017283;28;20221;-94
2022/11/17 01:01:32;;;;;;;5.67;2.60;;;4.50;99.90;;;;;;5015565;28;20566;-94
2022/11/17 01:04:05;;;;;;;3.70;2.40;;;4.50;99.90;;;;;;5021067;28;20263;-93
2022/11/17 01:07:22;;;;;;;2.43;2.23;;;4.50;99.90;;;;;;5018381;28;20241;-94
2022/11/17 01:13:42;;;;;;;3.03;2.33;;;4.60;99.90;;;;;;5009642;28;20226;-94
2022/11/17 01:19:30;;;;;;;2.70;2.27;;;4.70;99.90;;;;;;5016757;28;20190;-94
2022/11/17 01:21:57;;;;;;;2.30;2.10;;;4.70;99.90;;;;;;5015428;28;20763;-93
2022/11/17 01:27:09;;;;;;;4.97;2.30;;;4.80;99.90;;;;;;5007400;28;20207;-94
2022/11/17 01:32:29;;;;;;;3.00;2.20;;;5.00;99.90;;;;;;5004828;28;20241;-93
2022/11/17 01:37:52;;;;;;;4.13;2.30;;;5.10;99.90;;;;;;4975867;28;20196;-94
2022/11/17 01:40:28;;;;;;;2.60;2.40;;;5.10;99.90;;;;;;4971389;28;20237;-93
2022/11/17 01:42:55;;;;;;;3.67;2.20;;;5.20;99.90;;;;;;4967396;28;20205;-93
2022/11/17 01:51:31;;;;;;;4.10;3.20;;;5.20;99.90;;;;;;4864310;29;20216;-93
2022/11/17 02:00:05;;;;;;;3.83;3.27;;;5.20;99.90;;;;;;4786576;29;20226;-94
2022/11/17 02:11:59;;;;;;;2.83;2.30;;;5.00;99.90;;;;;;4837825;29;20213;-93
2022/11/17 02:17:08;;;;;;;3.17;2.20;;;5.10;99.90;;;;;;4841328;29;20720;-94
2022/11/17 02:24:04;;;;;;;3.10;2.27;;;5.50;99.90;;;;;;4845160;29;20212;-94
2022/11/17 02:39:40;;;;;;;1.87;1.67;;;5.50;99.90;;;;;;4857072;29;20205;-93
2022/11/17 02:42:11;;;;;;;1.77;1.50;;;5.40;99.90;;;;;;4861232;29;20204;-94
2022/11/17 02:44:46;;;;;;;2.30;1.63;;;5.40;99.90;;;;;;4855979;29;20219;-94
2022/11/17 02:50:28;;;;;;;2.83;1.53;;;5.40;99.90;;;;;;4892916;29;20222;-93
2022/11/17 02:53:17;;;;;;;2.57;1.80;;;5.50;99.90;;;;;;4886417;29;20246;-93
2022/11/17 02:56:04;;;;;;;3.57;1.70;;;5.50;99.90;;;;;;4877476;29;20200;-94
2022/11/17 02:58:41;;;;;;;2.20;1.80;;;5.50;99.90;;;;;;4877570;29;20215;-93
2022/11/17 03:01:58;;;;;;;2.27;1.77;;;5.60;99.90;;;;;;4898208;29;20265;-94
2022/11/17 03:07:53;;;;;;;1.80;1.65;;;5.60;99.90;;;;;;4902912;29;20233;-94
2022/11/17 03:17:17;;;;;;;2.30;1.90;;;6.10;99.90;;;;;;4934780;29;20224;-94
2022/11/17 03:22:43;;;;;;;1.88;1.70;;;5.90;99.90;;;;;;4919965;29;20249;-94
2022/11/17 03:26:04;;;;;;;2.15;1.85;;;5.80;99.90;;;;;;4955108;29;20243;-93
2022/11/17 03:28:59;;;;;;;2.00;1.70;;;5.90;99.90;;;;;;4937028;29;20249;-94
2022/11/17 03:31:43;;;;;;;2.23;1.77;;;5.80;99.90;;;;;;4940712;29;20209;-94
2022/11/17 03:34:15;;;;;;;1.50;1.40;;;5.70;99.90;;;;;;4929809;29;20752;-94
2022/11/17 03:39:57;;;;;;;2.63;1.83;;;5.50;99.90;;;;;;4964764;28;20208;-94
2022/11/17 03:42:30;;;;;;;2.00;1.60;;;5.40;99.90;;;;;;4981680;28;20234;-94
2022/11/17 03:47:43;;;;;;;1.60;1.30;;;5.40;99.90;;;;;;4973676;28;20208;-94
2022/11/17 03:50:24;;;;;;;2.37;1.67;;;5.50;99.90;;;;;;4971759;28;20274;-94
2022/11/17 03:59:16;;;;;;;1.60;1.30;;;5.50;99.90;;;;;;4900859;29;20218;-94
2022/11/17 04:07:15;;;;;;;1.93;1.47;;;5.60;99.90;;;;;;4897428;29;20207;-94
2022/11/17 04:15:57;;;;;;;1.80;1.37;;;5.70;99.90;;;;;;4929787;29;20217;-94
2022/11/17 04:18:25;;;;;;;1.53;1.40;;;5.70;99.90;;;;;;4937881;29;20319;-94
2022/11/17 04:20:53;;;;;;;1.50;1.40;;;5.70;99.90;;;;;;4936376;29;20224;-94
2022/11/17 04:23:20;;;;;;;1.67;1.40;;;5.70;99.90;;;;;;4938297;28;20804;-94
2022/11/17 04:29:11;;;;;;;1.77;1.30;;;5.80;99.90;;;;;;4952809;28;20264;-93
2022/11/17 04:31:37;;;;;;;1.50;1.40;;;5.80;99.90;;;;;;4971508;28;20208;-94
2022/11/17 04:36:46;;;;;;;1.63;1.33;;;5.90;99.90;;;;;;4990632;28;20200;-94
2022/11/17 04:39:15;;;;;;;1.52;1.33;;;5.90;99.90;;;;;;4997625;28;20310;-94
2022/11/17 04:41:53;;;;;;;1.60;1.40;;;5.90;99.90;;;;;;5003881;28;20204;-93
2022/11/17 04:47:17;;;;;;;1.90;1.50;;;5.90;99.90;;;;;;4968248;28;20215;-93
2022/11/17 04:49:59;;;;;;;1.57;1.40;;;6.00;99.90;;;;;;4985832;28;20645;-94
2022/11/17 04:55:17;;;;;;;1.95;1.63;;;6.00;99.90;;;;;;4918929;29;20234;-94
2022/11/17 04:57:45;;;;;;;3.23;1.50;;;6.00;99.90;;;;;;4917138;29;20208;-94
2022/11/17 05:00:23;;;;;;;1.70;1.60;;;6.00;99.90;;;;;;4922374;29;20278;-95
2022/11/17 05:03:22;;;;;;;1.70;1.60;;;5.90;99.90;;;;;;4920375;29;20278;-94
2022/11/17 05:05:53;;;;;;;1.60;1.50;;;5.80;99.90;;;;;;4921676;29;20301;-93
2022/11/17 05:08:23;;;;;;;2.47;1.70;;;5.90;99.90;;;;;;4918505;29;20262;-94
2022/11/17 05:19:29;;;;;;;2.87;1.67;;;5.80;99.90;;;;;;4869719;29;20223;-93
2022/11/17 05:24:37;;;;;;;1.35;1.25;;;5.80;99.90;;;;;;4861362;29;20216;-93
2022/11/17 05:27:17;;;;;;;1.50;1.40;;;5.90;99.90;;;;;;4898508;29;20690;-93
2022/11/17 05:30:22;;;;;;;2.10;1.33;;;5.90;99.90;;;;;;4907742;29;20247;-94
2022/11/17 05:36:04;;;;;;;1.92;1.45;;;5.90;99.90;;;;;;4939466;29;20207;-93
2022/11/17 05:39:22;;;;;;;1.40;1.30;;;6.00;99.90;;;;;;4941308;29;20622;-94
2022/11/17 05:45:41;;;;;;;6.15;1.60;;;6.00;99.90;;;;;;4884816;29;20662;-94
2022/11/17 05:57:46;;;;;;;2.60;1.40;;;6.30;99.90;;;;;;4868654;29;20289;-95
2022/11/17 06:04:02;;;;;;;2.05;1.42;;;6.40;99.90;;;;;;4867590;29;20209;-96
2022/11/17 06:06:49;;;;;;;1.67;1.58;;;6.40;99.90;;;;;;4873566;29;20226;-89
2022/11/17 06:09:58;;;;;;;1.98;1.40;;;6.50;99.90;;;;;;4857325;29;20296;-91
2022/11/17 06:26:03;;;;;;;3.53;1.80;;;6.50;99.90;;;;;;4870030;29;20215;-93
2022/11/17 06:32:07;;;;;;;1.98;1.80;;;6.30;99.90;;;;;;4954303;28;20183;-91
2022/11/17 06:34:36;;;;;;;2.40;2.20;;;6.60;99.90;;;;;;4955045;28;20323;-93
2022/11/17 06:40:37;;;;;;;2.40;2.05;;;6.70;99.90;;;;;;4961761;28;20184;-91
2022/11/17 06:43:17;;;;;;;3.03;2.25;;;6.70;99.90;;;;;;4948535;28;20303;-92
2022/11/17 06:55:08;;;;;;;3.70;2.50;;;6.80;99.90;;;;;;5384820;23;20238;-91
2022/11/17 06:58:00;;;;;;;3.30;3.00;;;6.80;99.90;;;;;;5034327;28;20195;-91
2022/11/17 07:00:58;;;;;;;3.15;2.40;;;6.90;99.90;;;;;;5030408;28;20286;-91
2022/11/17 07:03:36;;;;;;;7.72;2.33;;;6.80;99.90;;;;;;5032528;28;20230;-91
2022/11/17 07:13:40;;;;;;;3.30;2.10;;;6.60;99.90;;;;;;5036334;28;20205;-91
2022/11/17 07:23:09;;;;;;;4.55;2.20;;;6.60;99.90;;;;;;5037942;28;20224;-91
2022/11/17 07:32:26;;;;;;;2.97;1.80;;;6.80;99.90;;;;;;5036871;28;20647;-91
2022/11/17 07:41:37;;;;;;;3.15;2.15;;;7.00;99.90;;;;;;5021547;28;20178;-92
2022/11/17 07:44:05;;;;;;;2.97;2.00;;;7.10;99.90;;;;;;5040621;28;20292;-91
2022/11/17 07:50:05;;;;;;;6.25;2.70;;;7.20;99.90;;;;;;5037219;28;20679;-91
2022/11/17 08:15:05;;;;;;;6.82;2.85;;;7.30;99.90;;;;;;4973466;28;20224;-91
2022/11/17 08:18:02;;;;;;;3.50;2.38;;;7.40;99.90;;;;;;4968091;28;20232;-91
2022/11/17 08:20:29;;;;;;;7.05;2.90;;;7.30;99.90;;;;;;4971959;28;20212;-91
2022/11/17 08:23:05;;;;;;;5.22;2.63;;;7.40;99.90;;;;;;4975889;28;20240;-90
2022/11/17 08:25:35;;;;;;;9.93;2.92;;;7.40;99.90;;;;;;4977279;28;20291;-91
2022/11/17 08:28:28;;;;;;;4.38;2.42;;;7.50;99.90;;;;;;4971263;28;20217;-91
2022/11/17 08:31:06;;;;;;;5.95;2.70;;;7.50;99.90;;;;;;4969952;28;20295;-91
2022/11/17 08:33:44;;;;;;;3.75;2.47;;;7.60;99.90;;;;;;4964146;28;20200;-91
2022/11/17 08:36:40;;;;;;;4.55;2.95;;;7.70;99.90;;;;;;4974328;28;20205;-91
2022/11/17 08:39:07;;;;;;;5.85;2.90;;;7.70;99.90;;;;;;4976719;28;20289;-91
2022/11/17 08:41:35;;;;;;;4.07;2.92;;;7.70;99.90;;;;;;4976407;28;20232;-91
2022/11/17 08:44:17;;;;;;;5.43;2.67;;;7.80;99.90;;;;;;4977029;28;20251;-91
2022/11/17 08:50:36;;;;;;;3.67;2.63;;;8.20;99.90;;;;;;4969168;28;20211;-91
2022/11/17 09:12:34;;;;;;;3.38;2.63;;;13.10;87.70;;;;;;5018099;28;20562;-92
2022/11/17 09:15:24;;;;;;;3.50;2.38;;;14.10;79.10;;;;;;5014174;28;20642;-90
2022/11/17 09:17:51;;;;;;;5.30;2.42;;;14.90;65.90;;;;;;5015023;28;20199;-89
2022/11/17 09:20:52;;;;;;;3.75;2.42;;;15.50;58.50;;;;;;5015273;28;20206;-89
2022/11/17 09:23:35;;;;;;;4.45;2.60;;;15.40;57.70;;;;;;5017802;28;20213;-89
2022/11/17 09:30:04;;;;;;;4.88;2.70;;;14.00;76.70;;;;;;5011671;28;20217;-92
2022/11/17 09:32:48;;;;;;;3.95;2.60;;;14.30;81.10;;;;;;5007930;28;20731;-91
2022/11/17 09:35:18;;;;;;;4.95;2.30;;;14.20;78.10;;;;;;5008278;28;20222;-92
2022/11/17 09:37:53;;;;;;;3.90;2.13;;;14.30;75.60;;;;;;5012892;28;20206;-92
2022/11/17 09:44:08;;;;;;;3.85;2.17;;;14.90;75.70;;;;;;5011212;28;20238;-92
2022/11/17 09:47:22;;;;;;;3.05;1.42;;;15.10;63.80;;;;;;5006905;28;20546;-92
2022/11/17 09:50:18;;;;;;;4.15;2.50;;;15.40;60.40;;;;;;5014306;28;20223;-89
2022/11/17 09:53:03;;;;;;;3.47;1.77;;;16.40;52.60;;;;;;5013839;28;20218;-89
2022/11/17 09:55:38;;;;;;;2.95;1.60;;;17.00;46.00;;;;;;5013860;28;20333;-90
2022/11/17 09:58:27;;;;;;;2.05;1.85;;;17.40;45.30;;;;;;5009155;28;20219;-90
2022/11/17 10:01:06;;;;;;;2.40;1.60;;;17.20;43.20;;;;;;5010008;28;20207;-90
2022/11/17 10:04:17;;;;;;;2.63;1.48;;;16.30;49.20;;;;;;5017920;28;20230;-89
2022/11/17 10:06:54;;;;;;;2.95;1.60;;;15.30;52.40;;;;;;5010625;28;20216;-91
2022/11/17 10:09:34;;;;;;;4.70;1.80;;;14.60;63.50;;;;;;5009892;28;20208;-91
2022/11/17 10:12:32;;;;;;;4.80;1.60;;;14.20;72.20;;;;;;5025330;28;20207;-91
2022/11/17 10:18:35;;;;;;;3.20;1.52;;;14.80;73.50;;;;;;5016745;28;20167;-91
2022/11/17 10:24:46;;;;;;;3.35;1.30;;;14.30;67.20;;;;;;4995999;28;20199;-91
2022/11/17 10:27:28;;;;;;;3.55;1.33;;;14.10;71.60;;;;;;5005433;28;20195;-91
2022/11/17 10:29:57;;;;;;;3.13;1.40;;;14.00;76.60;;;;;;5018555;28;20257;-91
2022/11/17 10:45:56;;;;;;;9.20;1.52;;;13.60;86.70;;;;;;5005292;28;20653;-91
2022/11/17 10:48:29;;;;;;;7.28;1.58;;;13.30;84.90;;;;;;5024968;28;20235;-91
2022/11/17 10:51:20;;;;;;;4.50;1.55;;;13.50;90.00;;;;;;5012990;28;20242;-91
2022/11/17 10:54:19;;;;;;;2.30;1.17;;;13.30;85.00;;;;;;5015189;28;20602;-91
2022/11/17 10:57:01;;;;;;;1.95;1.20;;;13.60;85.40;;;;;;5011040;28;20290;-91
2022/11/17 10:59:44;;;;;;;1.90;1.17;;;13.70;86.20;;;;;;5021260;28;20203;-91
2022/11/17 11:02:28;;;;;;;3.75;1.20;;;13.90;84.40;;;;;;5007710;28;20302;-91
2022/11/17 11:05:07;;;;;;;1.67;1.27;;;13.60;83.70;;;;;;5004535;28;20566;-90
2022/11/17 11:07:36;;;;;;;1.98;1.17;;;13.60;83.80;;;;;;5006952;28;20214;-91
2022/11/17 11:10:26;;;;;;;1.83;1.33;;;13.60;84.90;;;;;;5014542;28;20651;-91
2022/11/17 11:12:59;;;;;;;2.25;1.20;;;13.70;85.10;;;;;;5004307;28;20206;-92
2022/11/17 11:15:31;;;;;;;1.30;1.20;;;13.70;84.40;;;;;;5012902;28;20241;-91
2022/11/17 11:18:19;;;;;;;1.05;0.95;;;13.70;85.10;;;;;;5015103;28;20302;-91
2022/11/17 11:21:04;;;;;;;1.63;1.00;;;13.70;80.10;;;;;;5011642;28;20274;-91
2022/11/17 11:24:09;;;;;;;1.63;1.00;;;13.70;80.90;;;;;;5012884;28;20211;-91
2022/11/17 11:30:22;;;;;;;2.28;1.10;;;14.10;75.20;;;;;;5009100;28;20215;-91
2022/11/17 11:36:40;;;;;;;1.83;1.20;;;14.00;76.60;;;;;;5024165;28;20226;-90
2022/11/17 11:42:50;;;;;;;1.65;1.35;;;14.00;76.60;;;;;;5025181;28;20198;-91
2022/11/17 11:45:45;;;;;;;2.58;1.38;;;14.00;76.20;;;;;;5023412;28;20234;-91
2022/11/17 11:48:21;;;;;;;1.33;1.08;;;13.80;77.40;;;;;;5007029;28;20246;-91
2022/11/17 11:51:11;;;;;;;3.00;1.20;;;13.80;81.40;;;;;;5020040;28;20639;-91
2022/11/17 11:53:47;;;;;;;1.52;1.15;;;13.60;78.70;;;;;;5004633;28;20321;-91
2022/11/17 11:56:33;;;;;;;1.52;1.10;;;13.50;81.00;;;;;;5007861;28;20231;-91
2022/11/17 11:59:07;;;;;;;1.73;1.10;;;13.40;81.40;;;;;;5018901;28;20202;-91
2022/11/17 12:04:45;;;;;;;1.23;1.13;;;13.30;81.90;;;;;;5012289;28;20316;-92
2022/11/17 12:07:20;;;;;;;1.45;1.30;;;13.20;83.60;;;;;;5015204;28;20207;-92
2022/11/17 12:10:02;;;;;;;1.38;1.10;;;13.40;84.40;;;;;;5010920;28;20244;-91
2022/11/17 12:12:45;;;;;;;1.10;1.00;;;13.60;82.40;;;;;;5011381;28;20238;-91
2022/11/17 12:18:34;;;;;;;2.30;1.52;;;13.90;81.20;;;;;;5002260;28;20190;-91
2022/11/17 12:21:35;;;;;;;1.90;1.13;;;14.00;73.40;;;;;;5009297;28;20674;-91
2022/11/17 12:24:16;;;;;;;5.18;1.40;;;13.80;77.70;;;;;;5014360;28;20293;-90
2022/11/17 12:26:44;;;;;;;1.98;1.30;;;13.50;79.40;;;;;;5013859;28;20480;-92
2022/11/17 12:29:44;;;;;;;3.35;1.30;;;13.40;77.50;;;;;;5005310;28;20212;-91
2022/11/17 12:32:49;;;;;;;3.45;1.30;;;13.30;76.10;;;;;;5000065;28;20566;-91
2022/11/17 12:35:37;;;;;;;2.83;1.15;;;13.20;76.00;;;;;;5010053;28;20309;-91
2022/11/17 12:47:53;;;;;;;2.28;1.35;;;13.30;77.00;;;;;;5007354;28;20195;-91
2022/11/17 12:50:48;;;;;;;2.80;1.10;;;13.20;76.00;;;;;;5007614;28;20198;-91
2022/11/17 12:54:05;;;;;;;2.15;1.10;;;13.30;69.50;;;;;;5009183;28;20231;-93
2022/11/17 13:00:40;;;;;;;3.35;1.08;;;13.30;66.70;;;;;;5022710;28;20189;-92
2022/11/17 13:03:38;;;;;;;1.95;1.40;;;13.30;67.80;;;;;;5018911;28;20262;-92
2022/11/17 13:09:32;;;;;;;4.93;1.17;;;13.20;67.60;;;;;;5009452;28;20244;-92
2022/11/17 13:12:27;;;;;;;2.55;1.20;;;13.10;66.30;;;;;;5011914;28;20302;-92
2022/11/17 13:15:06;;;;;;;2.47;1.20;;;13.00;67.80;;;;;;5017096;28;20234;-92
2022/11/17 13:27:45;;;;;;;2.08;1.30;;;12.80;73.00;;;;;;4976028;28;20176;-91
2022/11/17 13:48:27;;;;;;;3.10;1.60;;;12.40;75.50;;;;;;4956030;28;20267;-92
2022/11/17 15:31:38;;;;;;;5.80;2.08;;;10.40;90.20;;;;;;5010957;28;20230;-90
2022/11/17 15:34:11;;;;;;;6.95;2.53;;;10.30;90.40;;;;;;5015486;28;20233;-90
2022/11/17 15:43:29;;;;;;;6.55;2.25;;;10.10;92.00;;;;;;5010984;28;20174;-88
2022/11/17 15:46:35;;;;;;;3.17;1.70;;;9.90;93.40;;;;;;5017299;28;20199;-89
2022/11/17 16:21:45;;;;;;;12.25;6.75;;;9.50;96.00;;;;;;4975045;28;20971;-89
2022/11/17 16:24:29;;;;;;;7.45;3.80;;;9.40;96.00;;;;;;4975478;28;20232;-88
2022/11/17 16:26:56;;;;;;;5.25;3.50;;;9.40;96.00;;;;;;4956723;28;20249;-88
2022/11/17 16:29:23;;;;;;;7.70;3.97;;;9.30;96.00;;;;;;4981476;28;20716;-89
2022/11/17 16:31:50;;;;;;;4.70;3.13;;;9.20;96.10;;;;;;4967745;28;20260;-89
2022/11/17 16:34:18;;;;;;;10.23;3.53;;;9.00;96.70;;;;;;4973558;28;20205;-89
2022/11/17 16:36:49;;;;;;;6.75;4.05;;;8.90;97.50;;;;;;4975409;28;20663;-89
2022/11/17 16:39:18;;;;;;;6.30;3.85;;;8.80;98.00;;;;;;4975350;28;20638;-88
2022/11/17 16:41:48;;;;;;;6.70;3.20;;;8.80;98.30;;;;;;4958576;28;20220;-88
2022/11/17 16:44:17;;;;;;;7.13;3.92;;;8.80;98.20;;;;;;4979258;28;20208;-88
2022/11/17 16:47:05;;;;;;;6.22;3.25;;;8.90;98.20;;;;;;4975744;28;20295;-88
2022/11/17 16:49:47;;;;;;;8.77;4.93;;;9.00;97.80;;;;;;4973400;28;20261;-88
2022/11/17 16:52:25;;;;;;;6.75;4.18;;;9.00;97.80;;;;;;4973692;28;20197;-89
2022/11/17 16:54:53;;;;;;;10.43;3.55;;;9.00;97.80;;;;;;4974536;28;20323;-89
2022/11/17 16:57:20;;;;;;;7.75;3.08;;;9.00;97.80;;;;;;4974634;28;20223;-89
2022/11/17 16:59:47;;;;;;;10.88;3.65;;;8.90;97.90;;;;;;4968474;28;20208;-89
2022/11/17 17:02:17;;;;;;;7.75;3.50;;;8.70;98.10;;;;;;4969620;28;20313;-89
2022/11/17 17:04:47;;;;;;;7.47;3.70;;;8.60;98.60;;;;;;4973761;28;20205;-88
2022/11/17 17:07:14;;;;;;;8.00;3.45;;;8.60;99.00;;;;;;4971459;28;20295;-89
2022/11/17 17:09:43;;;;;;;7.22;3.65;;;8.50;99.30;;;;;;4974042;28;20220;-88
2022/11/17 17:12:17;;;;;;;5.13;3.80;;;8.60;99.50;;;;;;4975072;28;20215;-89
2022/11/17 17:14:44;;;;;;;6.93;3.70;;;8.60;99.50;;;;;;4973028;28;20275;-88
2022/11/17 17:17:23;;;;;;;9.32;3.72;;;8.70;99.50;;;;;;4977374;28;20312;-89
2022/11/17 17:19:59;;;;;;;9.82;3.88;;;8.80;99.50;;;;;;4972753;28;20264;-89
2022/11/17 17:22:29;;;;;;;6.78;3.95;;;8.80;99.30;;;;;;4971578;28;20623;-88
2022/11/17 17:28:31;;;;;;;5.22;3.20;;;8.80;99.20;;;;;;4970796;28;20649;-88
2022/11/17 17:31:00;;;;;;;6.57;2.70;;;8.70;99.50;;;;;;4983685;28;20200;-89
2022/11/17 17:33:36;;;;;;;5.50;3.17;;;8.80;99.60;;;;;;4994559;28;20250;-89
2022/11/17 17:36:07;;;;;;;6.90;3.33;;;8.80;99.30;;;;;;4979013;28;20224;-89
2022/11/17 17:38:35;;;;;;;6.32;3.60;;;8.90;99.30;;;;;;4980443;28;20294;-88
2022/11/17 17:41:42;;;;;;;9.95;3.70;;;8.90;99.20;;;;;;4977030;28;20207;-88
2022/11/17 17:44:19;;;;;;;7.32;3.30;;;9.00;99.20;;;;;;4977491;28;20209;-89
2022/11/17 17:47:35;;;;;;;8.27;3.05;;;9.00;98.80;;;;;;4974097;28;20211;-88
2022/11/17 17:50:02;;;;;;;8.45;2.90;;;9.00;98.60;;;;;;4976046;28;20201;-88
2022/11/17 17:52:28;;;;;;;5.43;2.47;;;8.90;98.50;;;;;;4980031;28;20644;-88
2022/11/17 17:55:23;;;;;;;7.47;2.75;;;8.80;98.50;;;;;;4971747;28;20260;-89
2022/11/17 17:57:50;;;;;;;8.63;2.90;;;8.70;98.80;;;;;;4973028;28;20296;-88
2022/11/17 18:00:21;;;;;;;3.70;2.70;;;8.50;99.20;;;;;;4970270;28;20237;-89
2022/11/17 18:03:06;;;;;;;6.43;2.60;;;8.50;99.40;;;;;;4984770;28;20283;-90
2022/11/17 18:05:35;;;;;;;4.22;2.90;;;8.50;99.40;;;;;;4971170;28;20683;-88
2022/11/17 18:08:03;;;;;;;5.05;2.63;;;8.40;99.40;;;;;;4970046;28;20205;-89
2022/11/17 18:10:36;;;;;;;4.70;2.88;;;8.30;99.60;;;;;;4972823;28;20278;-89
2022/11/17 18:13:11;;;;;;;4.10;2.80;;;8.30;99.70;;;;;;4962897;28;20291;-89
2022/11/17 18:15:55;;;;;;;6.90;3.20;;;8.20;99.90;;;;;;4971594;28;20283;-88
2022/11/17 18:18:22;;;;;;;6.22;3.03;;;8.00;99.90;;;;;;4971272;28;20209;-88
2022/11/17 18:20:58;;;;;;;8.35;3.20;;;8.00;99.90;;;;;;4978824;28;20205;-89
2022/11/17 18:23:36;;;;;;;5.07;3.20;;;7.90;99.90;;;;;;4970665;28;20349;-88
2022/11/17 18:26:11;;;;;;;7.07;3.03;;;7.90;99.90;;;;;;4964821;28;20240;-89
2022/11/17 18:28:39;;;;;;;10.00;3.70;;;7.80;99.90;;;;;;4972128;28;20205;-89
2022/11/17 18:31:13;;;;;;;6.30;3.60;;;7.80;99.90;;;;;;4967265;28;20207;-89
2022/11/17 18:33:40;;;;;;;6.05;3.70;;;7.80;99.90;;;;;;4964223;28;20228;-88
2022/11/17 18:36:08;;;;;;;6.05;3.70;;;7.80;99.90;;;;;;4963716;28;20786;-88
2022/11/17 18:38:37;;;;;;;8.10;4.25;;;7.80;99.90;;;;;;4963537;28;20219;-89
2022/11/17 18:41:08;;;;;;;8.35;3.85;;;7.80;99.90;;;;;;4968175;28;20288;-89
2022/11/17 18:43:48;;;;;;;6.63;3.88;;;7.90;99.90;;;;;;4967640;28;20216;-89
2022/11/17 18:46:20;;;;;;;5.43;3.88;;;7.80;99.90;;;;;;4977333;28;20296;-88
2022/11/17 18:48:49;;;;;;;7.05;4.97;;;7.90;99.90;;;;;;4964559;28;20213;-87
2022/11/17 18:51:19;;;;;;;7.85;5.03;;;8.00;99.90;;;;;;4971556;28;20204;-89
2022/11/17 18:53:48;;;;;;;9.85;5.03;;;8.10;99.90;;;;;;4970696;28;20255;-88
2022/11/17 18:56:20;;;;;;;11.00;7.35;;;8.20;99.90;;;;;;4968962;28;20311;-88
2022/11/17 18:58:47;;;;;;;14.18;8.32;;;8.10;99.90;;;;;;4970517;28;20212;-89
2022/11/17 19:01:17;;;;;;;12.23;8.25;;;8.20;99.90;;;;;;4971371;28;20299;-87
2022/11/17 19:03:45;;;;;;;11.98;7.78;;;8.10;99.90;;;;;;4971423;28;20327;-89
2022/11/17 19:06:30;;;;;;;12.75;7.28;;;8.10;99.90;;;;;;4978013;28;20294;-90
2022/11/17 19:09:07;;;;;;;10.27;7.30;;;8.10;99.90;;;;;;4974503;28;20220;-90
2022/11/17 19:11:59;;;;;;;8.98;6.20;;;8.20;99.90;;;;;;4971693;28;20208;-88
2022/11/17 19:14:29;;;;;;;15.40;11.00;;;8.20;99.90;;;;;;4972444;28;20221;-89
2022/11/17 19:16:58;;;;;;;11.32;7.18;;;8.20;99.90;;;;;;4972068;28;20715;-89
2022/11/17 19:19:25;;;;;;;15.82;9.68;;;8.20;99.90;;;;;;4977422;28;20208;-88
2022/11/17 19:21:51;;;;;;;11.00;6.93;;;8.20;99.90;;;;;;4971473;28;20295;-89
2022/11/17 19:24:18;;;;;;;12.73;8.55;;;8.20;99.90;;;;;;4971403;28;20212;-89
2022/11/17 19:26:47;;;;;;;9.73;5.53;;;8.20;99.90;;;;;;4967216;28;20687;-89
2022/11/17 19:29:14;;;;;;;8.40;5.38;;;8.30;99.90;;;;;;4970721;28;20339;-89
2022/11/17 19:31:41;;;;;;;6.88;4.88;;;8.30;99.90;;;;;;4968025;28;20303;-89
2022/11/17 19:34:10;;;;;;;6.45;4.53;;;8.20;99.90;;;;;;4968420;28;20208;-89
2022/11/17 19:36:39;;;;;;;7.50;4.30;;;8.20;99.90;;;;;;4965965;28;20239;-89
2022/11/17 19:39:06;;;;;;;6.10;4.60;;;8.20;99.90;;;;;;4965692;28;20204;-89
2022/11/17 19:41:34;;;;;;;7.80;4.68;;;8.20;99.90;;;;;;4965265;28;20204;-90
2022/11/17 19:44:03;;;;;;;6.13;4.45;;;8.20;99.90;;;;;;4967590;28;20249;-89
2022/11/17 19:46:36;;;;;;;9.30;4.20;;;8.20;99.90;;;;;;4968114;28;20560;-90
2022/11/17 19:49:04;;;;;;;7.43;4.32;;;8.30;99.90;;;;;;4964796;28;20209;-89
2022/11/17 19:51:35;;;;;;;7.35;4.18;;;8.30;99.90;;;;;;4972665;28;20205;-89
2022/11/17 19:54:04;;;;;;;5.63;4.18;;;8.20;99.90;;;;;;4975172;28;20228;-88
2022/11/17 19:56:31;;;;;;;7.05;4.22;;;8.20;99.90;;;;;;4971698;28;20235;-89
2022/11/17 19:58:59;;;;;;;7.05;4.43;;;8.20;99.90;;;;;;4977604;28;20325;-89
2022/11/17 20:01:28;;;;;;;6.20;4.65;;;8.30;99.90;;;;;;4966321;28;20245;-89
2022/11/17 20:03:56;;;;;;;5.97;4.43;;;8.30;99.90;;;;;;4974707;28;20650;-89
2022/11/17 20:06:26;;;;;;;8.10;4.00;;;8.50;99.90;;;;;;4968864;28;20654;-90
2022/11/17 20:08:54;;;;;;;8.30;4.55;;;8.70;99.50;;;;;;4967031;28;20236;-88
2022/11/17 20:11:24;;;;;;;8.50;4.82;;;8.60;98.80;;;;;;4964196;28;21013;-89
2022/11/17 20:13:51;;;;;;;6.93;4.88;;;8.60;99.00;;;;;;4965782;28;20615;-89
2022/11/17 20:16:20;;;;;;;8.30;5.20;;;8.50;99.50;;;;;;4968127;28;20200;-89
2022/11/17 20:18:50;;;;;;;6.13;4.82;;;8.50;99.40;;;;;;4969976;28;20252;-88
2022/11/17 20:21:18;;;;;;;8.93;5.32;;;8.50;99.80;;;;;;4971205;28;20204;-89
2022/11/17 20:23:45;;;;;;;8.38;5.03;;;8.40;99.90;;;;;;4974852;28;20296;-89
2022/11/17 20:26:15;;;;;;;8.48;5.35;;;8.30;99.90;;;;;;4971996;28;20644;-89
2022/11/17 20:28:42;;;;;;;8.55;5.10;;;8.50;99.90;;;;;;4965527;28;20211;-90
2022/11/17 20:31:11;;;;;;;7.13;5.07;;;8.60;99.90;;;;;;4971716;28;20205;-89
2022/11/17 20:33:39;;;;;;;7.22;4.95;;;8.70;99.40;;;;;;4973661;28;20329;-89
2022/11/17 20:36:08;;;;;;;7.57;4.60;;;8.60;99.50;;;;;;4971592;28;20645;-89
2022/11/17 20:38:35;;;;;;;6.15;4.60;;;8.50;99.80;;;;;;4972465;28;20200;-89
2022/11/17 20:41:03;;;;;;;7.05;4.70;;;8.60;99.60;;;;;;4967815;28;20209;-89
2022/11/17 20:43:32;;;;;;;8.52;5.68;;;8.50;99.70;;;;;;4974520;28;20232;-90
2022/11/17 20:45:59;;;;;;;7.97;5.13;;;8.40;99.90;;;;;;4972264;28;20292;-90
2022/11/17 20:48:27;;;;;;;10.10;5.32;;;8.40;99.90;;;;;;4963423;28;20197;-89
2022/11/17 20:50:58;;;;;;;9.07;5.70;;;8.40;99.90;;;;;;4974523;28;20228;-90
2022/11/17 20:53:30;;;;;;;10.70;6.95;;;8.30;99.90;;;;;;4974093;28;20308;-90
2022/11/17 20:55:58;;;;;;;9.90;5.50;;;8.30;99.90;;;;;;4974449;28;20208;-90
2022/11/17 20:58:25;;;;;;;54.88;39.50;;;8.20;99.90;;;;;;4970170;28;20653;-90
2022/11/17 21:00:54;;;;;;;5.85;4.55;;;8.50;99.90;;;;;;4971377;28;20219;-89
2022/11/17 21:03:22;;;;;;;33.22;25.25;;;8.70;99.90;;;;;;4975570;28;20232;-89
2022/11/17 21:06:02;;;;;;;8.75;6.18;;;8.60;99.90;;;;;;4974651;28;20208;-89
2022/11/17 21:08:32;;;;;;;5.57;3.75;;;8.80;99.90;;;;;;4973639;28;20267;-89
2022/11/17 21:11:00;;;;;;;5.85;4.07;;;8.70;99.10;;;;;;4974967;28;20303;-89
2022/11/17 21:13:29;;;;;;;5.78;4.18;;;8.40;99.50;;;;;;4974124;28;20287;-90
2022/11/17 21:16:16;;;;;;;6.25;4.20;;;8.30;99.90;;;;;;4972569;28;20212;-90
2022/11/17 21:18:46;;;;;;;6.47;4.50;;;8.20;99.90;;;;;;4968629;28;20374;-89
2022/11/17 21:21:13;;;;;;;7.28;4.68;;;8.30;99.90;;;;;;4971207;28;20327;-89
2022/11/17 21:23:41;;;;;;;5.57;4.15;;;8.30;99.90;;;;;;4971036;28;20209;-89
2022/11/17 21:26:10;;;;;;;6.78;4.32;;;8.30;99.90;;;;;;4970894;28;20220;-89
2022/11/17 21:28:37;;;;;;;11.90;7.38;;;8.20;99.90;;;;;;4971786;28;20264;-90
2022/11/17 21:31:08;;;;;;;7.93;5.25;;;8.30;99.90;;;;;;4962410;28;20304;-89
2022/11/17 21:33:42;;;;;;;6.72;4.72;;;8.40;99.90;;;;;;4970027;28;20217;-89
2022/11/17 21:36:11;;;;;;;8.32;5.18;;;8.50;99.90;;;;;;4970914;28;20335;-89
2022/11/17 21:38:43;;;;;;;9.20;5.10;;;8.60;99.70;;;;;;4972292;28;20796;-89
2022/11/17 21:41:14;;;;;;;8.48;5.43;;;8.50;99.90;;;;;;4969892;28;20244;-89
2022/11/17 21:43:42;;;;;;;9.07;5.03;;;8.30;99.90;;;;;;4970692;28;20291;-89
2022/11/17 21:46:13;;;;;;;7.47;5.10;;;8.20;99.90;;;;;;4970908;28;20297;-89
2022/11/17 21:48:40;;;;;;;9.18;5.30;;;8.20;99.90;;;;;;4963737;28;20292;-89
2022/11/17 21:51:14;;;;;;;7.32;4.75;;;8.20;99.90;;;;;;4971372;28;20204;-89